Time;durP1;ratioP1;P1;durP2;ratioP2;P2;SDS_P1;SDS_P2;PMS_P1;PMS_P2;Temp;Humidity;BMP_temperature;BMP_pressure;BME280_temperature;BME280_humidity;BME280_pressure;Samples;Min_cycle;Max_cycle;Signal;HPM_P1;HPM_P2
2022/06/28 00:02:18;;;;;;;11.57;10.30;;;16.00;99.90;;;;;;5069284;28;20298;-77
2022/06/28 00:05:04;;;;;;;11.20;10.07;;;16.00;99.90;;;;;;5065042;28;20186;-76
2022/06/28 00:07:49;;;;;;;12.73;10.90;;;15.90;99.90;;;;;;5065694;28;20237;-76
2022/06/28 00:10:33;;;;;;;15.63;10.80;;;15.90;99.90;;;;;;5070238;28;20621;-76
2022/06/28 00:13:18;;;;;;;15.77;11.33;;;15.90;99.90;;;;;;5063720;28;20260;-75
2022/06/28 00:16:05;;;;;;;13.87;11.20;;;15.80;99.90;;;;;;5065523;28;20177;-75
2022/06/28 00:18:51;;;;;;;11.87;10.57;;;15.80;99.90;;;;;;5066248;28;20190;-77
2022/06/28 00:21:35;;;;;;;12.47;11.17;;;15.70;99.90;;;;;;5064904;28;20252;-76
2022/06/28 00:24:20;;;;;;;12.93;11.50;;;15.80;99.90;;;;;;5062963;28;20252;-77
2022/06/28 00:27:04;;;;;;;12.40;11.10;;;15.70;99.90;;;;;;5066695;28;20222;-77
2022/06/28 00:29:48;;;;;;;16.13;12.13;;;15.60;99.90;;;;;;5062382;28;20206;-76
2022/06/28 00:32:32;;;;;;;15.80;11.83;;;15.60;99.90;;;;;;5066484;28;20210;-73
2022/06/28 00:35:16;;;;;;;13.50;12.07;;;15.60;99.90;;;;;;5061225;28;20182;-76
2022/06/28 00:38:00;;;;;;;16.23;12.30;;;15.50;99.90;;;;;;5067834;28;20190;-75
2022/06/28 00:40:51;;;;;;;14.20;12.20;;;15.50;99.90;;;;;;5066129;28;20217;-77
2022/06/28 00:43:36;;;;;;;15.60;12.27;;;15.50;99.90;;;;;;5061511;28;20265;-77
2022/06/28 00:46:21;;;;;;;18.00;11.93;;;15.40;99.90;;;;;;5065210;28;20214;-76
2022/06/28 00:49:06;;;;;;;14.43;12.43;;;15.40;99.90;;;;;;5063523;28;20685;-74
2022/06/28 00:51:50;;;;;;;15.30;12.47;;;15.40;99.90;;;;;;5064302;28;20189;-76
2022/06/28 00:54:34;;;;;;;14.70;12.60;;;15.40;99.90;;;;;;5060772;28;20701;-75
2022/06/28 00:57:19;;;;;;;14.17;12.70;;;15.40;99.90;;;;;;5062009;28;20286;-76
2022/06/28 01:00:03;;;;;;;16.10;11.97;;;15.40;99.90;;;;;;5060439;28;20383;-75
2022/06/28 01:02:48;;;;;;;15.20;12.93;;;15.40;99.90;;;;;;5067948;28;20567;-77
2022/06/28 01:05:33;;;;;;;15.13;12.97;;;15.30;99.90;;;;;;5061907;28;20183;-75
2022/06/28 01:08:18;;;;;;;15.23;12.97;;;15.30;99.90;;;;;;5065475;28;20198;-76
2022/06/28 01:11:18;;;;;;;15.07;13.27;;;15.20;99.90;;;;;;5064621;28;20187;-75
2022/06/28 01:14:07;;;;;;;18.87;14.33;;;15.20;99.90;;;;;;5056961;28;20291;-76
2022/06/28 01:16:51;;;;;;;16.63;12.97;;;15.20;99.90;;;;;;5071260;28;20233;-76
2022/06/28 01:19:36;;;;;;;21.00;14.33;;;15.10;99.90;;;;;;5069228;28;20198;-76
2022/06/28 01:22:21;;;;;;;18.10;13.63;;;15.10;99.90;;;;;;5062065;28;20724;-74
2022/06/28 01:25:07;;;;;;;18.33;13.33;;;15.10;99.90;;;;;;5064225;28;20190;-76
2022/06/28 01:27:54;;;;;;;16.10;14.37;;;15.00;99.90;;;;;;5067630;28;20190;-74
2022/06/28 01:30:38;;;;;;;18.10;13.97;;;15.00;99.90;;;;;;5062504;28;20612;-76
2022/06/28 01:33:23;;;;;;;15.63;13.70;;;15.00;99.90;;;;;;5074119;28;20260;-74
2022/06/28 01:36:09;;;;;;;18.63;14.03;;;15.00;99.90;;;;;;5067012;28;20202;-76
2022/06/28 01:38:53;;;;;;;15.30;13.67;;;14.90;99.90;;;;;;5062189;28;20190;-75
2022/06/28 01:41:38;;;;;;;15.80;14.20;;;14.90;99.90;;;;;;5068686;28;20566;-76
2022/06/28 01:44:22;;;;;;;16.17;12.90;;;14.90;99.90;;;;;;5062853;28;20549;-76
2022/06/28 01:47:07;;;;;;;17.53;13.97;;;14.90;99.90;;;;;;5074745;28;20198;-75
2022/06/28 01:49:52;;;;;;;14.87;13.27;;;14.80;99.90;;;;;;5062882;28;20265;-74
2022/06/28 01:52:40;;;;;;;17.43;14.10;;;14.80;99.90;;;;;;5068874;28;20255;-73
2022/06/28 01:55:24;;;;;;;14.77;13.20;;;14.80;99.90;;;;;;5070121;28;20256;-76
2022/06/28 01:58:09;;;;;;;17.77;13.43;;;14.80;99.90;;;;;;5068487;28;20201;-75
2022/06/28 02:00:53;;;;;;;14.30;12.73;;;14.80;99.90;;;;;;5062906;28;20237;-76
2022/06/28 02:03:37;;;;;;;14.17;12.40;;;14.70;99.90;;;;;;5069903;28;20343;-75
2022/06/28 02:06:21;;;;;;;19.47;13.63;;;14.70;99.90;;;;;;5066611;28;20226;-76
2022/06/28 02:09:05;;;;;;;15.20;13.60;;;14.70;99.90;;;;;;5086351;28;20190;-76
2022/06/28 02:11:50;;;;;;;15.40;13.17;;;14.70;99.90;;;;;;5064798;28;20313;-74
2022/06/28 02:14:34;;;;;;;14.50;12.60;;;14.60;99.90;;;;;;5065529;28;20186;-75
2022/06/28 02:17:19;;;;;;;15.87;13.57;;;14.60;99.90;;;;;;5067831;28;20189;-75
2022/06/28 02:20:04;;;;;;;16.20;13.47;;;14.50;99.90;;;;;;5067604;28;20683;-75
2022/06/28 02:22:48;;;;;;;16.50;13.13;;;14.50;99.90;;;;;;5065244;28;20282;-76
2022/06/28 02:25:32;;;;;;;14.57;12.53;;;14.50;99.90;;;;;;5068035;28;20182;-76
2022/06/28 02:28:16;;;;;;;14.67;13.23;;;14.40;99.90;;;;;;5068438;28;20201;-74
2022/06/28 02:31:00;;;;;;;14.47;12.97;;;14.40;99.90;;;;;;5067930;28;20190;-74
2022/06/28 02:33:44;;;;;;;14.40;12.90;;;14.40;99.90;;;;;;5067545;28;20241;-77
2022/06/28 02:42:34;;;;;;;14.13;12.57;;;14.30;99.90;;;;;;5067894;28;20283;-76
2022/06/28 02:45:20;;;;;;;14.37;12.97;;;14.30;99.90;;;;;;5079469;28;20181;-76
2022/06/28 02:48:05;;;;;;;15.17;13.57;;;14.20;99.90;;;;;;5081812;28;20247;-74
2022/06/28 02:50:49;;;;;;;15.40;13.10;;;14.30;99.90;;;;;;5068443;28;20208;-76
2022/06/28 02:53:33;;;;;;;16.70;13.17;;;14.20;99.90;;;;;;5064698;28;20210;-76
2022/06/28 02:56:17;;;;;;;14.13;12.67;;;14.10;99.90;;;;;;5079747;28;20239;-75
2022/06/28 02:59:01;;;;;;;16.20;14.50;;;14.10;99.90;;;;;;5065721;28;20198;-75
2022/06/28 03:01:46;;;;;;;15.97;13.77;;;14.10;99.90;;;;;;5062290;28;20294;-75
2022/06/28 03:04:30;;;;;;;15.80;13.83;;;14.10;99.90;;;;;;5059491;28;20275;-74
2022/06/28 03:07:14;;;;;;;16.60;13.50;;;14.00;99.90;;;;;;5064996;28;20186;-76
2022/06/28 03:09:59;;;;;;;15.83;13.97;;;14.00;99.90;;;;;;5067092;28;20266;-75
2022/06/28 03:12:44;;;;;;;15.83;13.90;;;14.00;99.90;;;;;;5066653;28;20324;-77
2022/06/28 03:15:28;;;;;;;15.40;13.80;;;13.90;99.90;;;;;;5063519;28;20267;-75
2022/06/28 03:18:12;;;;;;;16.90;14.80;;;13.90;99.90;;;;;;5065137;28;20194;-74
2022/06/28 03:20:56;;;;;;;15.60;13.40;;;13.90;99.90;;;;;;5073365;28;20605;-74
2022/06/28 03:23:40;;;;;;;14.90;13.40;;;13.90;99.90;;;;;;5063243;28;20217;-74
2022/06/28 03:26:24;;;;;;;17.77;14.50;;;13.80;99.90;;;;;;5063948;28;20186;-74
2022/06/28 03:29:09;;;;;;;15.77;14.17;;;13.70;99.90;;;;;;5071241;28;20209;-74
2022/06/28 03:31:53;;;;;;;18.13;13.90;;;13.70;99.90;;;;;;5079937;28;20222;-74
2022/06/28 03:34:37;;;;;;;18.30;14.63;;;13.70;99.90;;;;;;5064193;28;20210;-74
2022/06/28 03:37:21;;;;;;;19.00;15.10;;;13.70;99.90;;;;;;5065768;28;20245;-72
2022/06/28 03:40:05;;;;;;;17.60;14.70;;;13.70;99.90;;;;;;5063169;28;20185;-72
2022/06/28 03:42:50;;;;;;;17.07;14.90;;;13.70;99.90;;;;;;5064813;28;20217;-73
2022/06/28 03:45:34;;;;;;;16.30;14.07;;;13.70;99.90;;;;;;5065845;28;20187;-73
2022/06/28 03:48:18;;;;;;;19.37;14.20;;;13.70;99.90;;;;;;5073178;28;20182;-74
2022/06/28 03:51:02;;;;;;;21.53;15.13;;;13.70;99.90;;;;;;5067452;28;20190;-74
2022/06/28 03:53:46;;;;;;;17.70;15.87;;;13.70;99.90;;;;;;5067211;28;20233;-74
2022/06/28 03:56:30;;;;;;;18.03;16.00;;;13.70;99.90;;;;;;5064648;28;20252;-74
2022/06/28 03:59:14;;;;;;;17.60;14.70;;;13.70;99.90;;;;;;5061476;28;20182;-74
2022/06/28 04:01:59;;;;;;;17.33;14.43;;;13.70;99.90;;;;;;5064499;28;20214;-75
2022/06/28 04:04:43;;;;;;;18.37;14.73;;;13.70;99.90;;;;;;5078517;28;20175;-74
2022/06/28 04:07:27;;;;;;;19.17;16.00;;;13.70;99.90;;;;;;5065078;28;20209;-74
2022/06/28 04:10:12;;;;;;;16.70;14.97;;;13.80;99.90;;;;;;5071389;28;20608;-75
2022/06/28 04:12:56;;;;;;;20.70;14.70;;;13.80;99.90;;;;;;5068627;28;20218;-74
2022/06/28 04:15:40;;;;;;;18.50;15.60;;;13.80;99.90;;;;;;5062931;28;20193;-76
2022/06/28 04:18:24;;;;;;;20.13;15.60;;;13.80;99.90;;;;;;5060051;28;20186;-76
2022/06/28 04:21:09;;;;;;;19.63;16.23;;;13.80;99.90;;;;;;5064849;28;20761;-75
2022/06/28 04:23:53;;;;;;;20.23;16.73;;;13.80;99.90;;;;;;5076241;28;20210;-76
2022/06/28 04:26:37;;;;;;;19.10;16.67;;;13.80;99.90;;;;;;5066196;28;20210;-75
2022/06/28 04:29:21;;;;;;;21.00;16.57;;;13.90;99.90;;;;;;5065787;28;20238;-76
2022/06/28 04:32:05;;;;;;;19.43;16.40;;;13.90;99.90;;;;;;5066770;28;20197;-76
2022/06/28 04:34:50;;;;;;;18.63;16.73;;;13.90;99.90;;;;;;5058978;28;20612;-76
2022/06/28 04:37:34;;;;;;;19.33;16.87;;;13.90;99.90;;;;;;5076021;28;20186;-75
2022/06/28 04:40:18;;;;;;;22.00;16.90;;;13.90;99.90;;;;;;5080293;28;20228;-75
2022/06/28 04:43:02;;;;;;;20.43;17.80;;;13.90;99.90;;;;;;5081492;28;20268;-75
2022/06/28 04:45:47;;;;;;;21.53;17.47;;;14.00;99.90;;;;;;5064081;28;20720;-76
2022/06/28 04:48:31;;;;;;;21.63;17.13;;;14.00;99.90;;;;;;5075643;28;20285;-75
2022/06/28 04:51:16;;;;;;;18.60;15.87;;;14.00;99.90;;;;;;5066085;28;20273;-76
2022/06/28 04:54:00;;;;;;;21.97;17.30;;;14.10;99.90;;;;;;5064336;28;20214;-75
2022/06/28 04:56:44;;;;;;;17.50;15.67;;;14.10;99.90;;;;;;5063140;28;20194;-75
2022/06/28 04:59:28;;;;;;;25.80;15.77;;;14.20;99.90;;;;;;5060490;28;20201;-76
2022/06/28 05:02:12;;;;;;;17.87;15.77;;;14.20;99.90;;;;;;5078938;28;20205;-77
2022/06/28 05:04:56;;;;;;;19.27;15.40;;;14.30;99.90;;;;;;5065546;28;20263;-76
2022/06/28 05:07:40;;;;;;;20.13;15.13;;;14.30;99.90;;;;;;5065143;28;20265;-76
2022/06/28 05:10:25;;;;;;;18.00;15.03;;;14.40;99.90;;;;;;5081523;28;20209;-75
2022/06/28 05:13:09;;;;;;;26.37;15.10;;;14.40;99.90;;;;;;5074916;28;20213;-76
2022/06/28 05:15:53;;;;;;;18.57;15.67;;;14.50;99.90;;;;;;5071792;28;20229;-75
2022/06/28 05:18:37;;;;;;;18.23;14.80;;;14.50;99.90;;;;;;5061726;28;20261;-75
2022/06/28 05:21:21;;;;;;;18.77;15.17;;;14.60;99.90;;;;;;5057908;28;20213;-75
2022/06/28 05:24:05;;;;;;;21.07;14.73;;;14.60;99.90;;;;;;5082716;28;20287;-75
2022/06/28 05:26:49;;;;;;;15.73;14.10;;;14.70;99.90;;;;;;5063684;28;20237;-75
2022/06/28 05:29:33;;;;;;;19.10;14.53;;;14.70;99.90;;;;;;5069412;28;20265;-75
2022/06/28 05:32:17;;;;;;;17.87;13.17;;;14.80;99.90;;;;;;5078469;28;20739;-76
2022/06/28 05:35:02;;;;;;;17.83;13.67;;;14.90;99.90;;;;;;5069538;28;20194;-75
2022/06/28 05:37:46;;;;;;;15.70;13.07;;;14.90;99.90;;;;;;5061142;28;20283;-75
2022/06/28 05:40:30;;;;;;;18.17;14.13;;;15.00;99.90;;;;;;5071608;28;20198;-75
2022/06/28 05:43:14;;;;;;;19.73;12.80;;;15.00;99.90;;;;;;5067722;28;20212;-76
2022/06/28 05:45:59;;;;;;;17.80;13.67;;;15.10;99.90;;;;;;5070425;28;20266;-74
2022/06/28 05:48:42;;;;;;;17.80;13.00;;;15.20;99.90;;;;;;5064728;28;20186;-74
2022/06/28 05:51:29;;;;;;;17.53;12.63;;;15.30;99.90;;;;;;5055751;28;20195;-74
2022/06/28 05:54:13;;;;;;;21.23;13.67;;;15.40;99.90;;;;;;5062371;28;20225;-75
2022/06/28 05:56:57;;;;;;;18.37;12.83;;;15.50;99.90;;;;;;5069170;28;20186;-75
2022/06/28 05:59:41;;;;;;;18.37;12.77;;;15.50;99.90;;;;;;5066849;28;20194;-74
2022/06/28 06:02:25;;;;;;;16.30;12.30;;;15.60;99.90;;;;;;5078703;28;20221;-74
2022/06/28 06:05:10;;;;;;;14.83;11.60;;;15.70;99.90;;;;;;5066173;28;20190;-74
2022/06/28 06:07:55;;;;;;;13.90;11.97;;;15.70;99.90;;;;;;5065700;28;20292;-74
2022/06/28 06:10:39;;;;;;;14.63;11.07;;;15.80;99.90;;;;;;5070658;28;20209;-74
2022/06/28 06:13:23;;;;;;;21.63;12.27;;;15.90;99.90;;;;;;5083594;28;20218;-74
2022/06/28 06:16:07;;;;;;;14.43;11.43;;;16.00;99.90;;;;;;5073989;28;20202;-76
2022/06/28 06:18:51;;;;;;;18.90;11.70;;;16.10;99.90;;;;;;5083691;28;20734;-74
2022/06/28 06:21:35;;;;;;;16.67;11.73;;;16.10;99.90;;;;;;5060384;28;20201;-74
2022/06/28 06:24:19;;;;;;;13.10;11.47;;;16.20;99.90;;;;;;5072711;28;20179;-74
2022/06/28 06:27:04;;;;;;;14.00;10.60;;;16.20;99.90;;;;;;5067901;28;20179;-74
2022/06/28 06:29:48;;;;;;;13.27;10.87;;;16.30;99.90;;;;;;5062231;28;20182;-74
2022/06/28 06:32:33;;;;;;;13.97;10.57;;;16.40;99.90;;;;;;5063017;28;20294;-74
2022/06/28 06:35:17;;;;;;;14.53;10.97;;;16.40;99.90;;;;;;5063761;28;20194;-74
2022/06/28 06:38:01;;;;;;;12.17;10.87;;;16.50;99.90;;;;;;5068083;28;20237;-75
2022/06/28 06:40:45;;;;;;;18.37;9.97;;;16.50;99.90;;;;;;5077609;28;20209;-74
2022/06/28 06:43:29;;;;;;;13.07;10.40;;;16.70;99.90;;;;;;5065759;28;20252;-74
2022/06/28 06:46:13;;;;;;;12.33;9.37;;;16.70;99.90;;;;;;5065918;28;20273;-74
2022/06/28 06:48:58;;;;;;;12.13;9.67;;;16.80;99.90;;;;;;5068851;28;20225;-74
2022/06/28 06:51:44;;;;;;;16.87;9.67;;;16.80;99.90;;;;;;5066698;28;20181;-75
2022/06/28 06:54:28;;;;;;;10.90;8.87;;;16.90;99.90;;;;;;5066835;28;20205;-74
2022/06/28 06:57:13;;;;;;;11.73;8.80;;;17.10;99.90;;;;;;5064695;28;20182;-74
2022/06/28 06:59:58;;;;;;;15.63;8.17;;;17.10;99.90;;;;;;5063025;28;20240;-75
2022/06/28 07:02:42;;;;;;;10.27;7.87;;;17.20;99.90;;;;;;5064986;28;20222;-74
2022/06/28 07:05:26;;;;;;;11.00;7.67;;;17.30;99.90;;;;;;5066167;28;20229;-74
2022/06/28 07:08:10;;;;;;;12.40;6.93;;;17.30;99.90;;;;;;5066415;28;20243;-74
2022/06/28 07:10:54;;;;;;;9.87;7.53;;;17.40;99.90;;;;;;5064032;28;20182;-75
2022/06/28 07:13:38;;;;;;;8.13;7.13;;;17.50;99.90;;;;;;5071130;28;20573;-75
2022/06/28 07:16:23;;;;;;;13.37;6.37;;;17.50;99.90;;;;;;5061432;28;20285;-73
2022/06/28 07:19:07;;;;;;;10.13;6.83;;;17.60;99.90;;;;;;5067493;28;20198;-73
2022/06/28 07:21:51;;;;;;;6.80;5.90;;;17.70;99.90;;;;;;5061036;28;20236;-73
2022/06/28 07:24:35;;;;;;;8.87;6.57;;;17.70;99.90;;;;;;5067216;28;20673;-73
2022/06/28 07:27:20;;;;;;;9.50;6.93;;;17.80;99.90;;;;;;5066857;28;20210;-73
2022/06/28 07:30:04;;;;;;;9.90;6.53;;;17.80;99.90;;;;;;5069992;28;20224;-73
2022/06/28 07:32:49;;;;;;;8.43;6.90;;;17.90;99.90;;;;;;5063818;28;20221;-73
2022/06/28 07:35:33;;;;;;;10.53;6.87;;;17.90;99.90;;;;;;5067144;28;20270;-73
2022/06/28 07:38:17;;;;;;;11.37;6.47;;;18.00;99.90;;;;;;5062350;28;20228;-73
2022/06/28 07:41:01;;;;;;;11.03;7.53;;;18.10;99.90;;;;;;5079708;28;20213;-73
2022/06/28 07:43:45;;;;;;;8.70;6.80;;;18.20;99.90;;;;;;5064366;28;20693;-74
2022/06/28 07:46:29;;;;;;;11.63;6.18;;;18.20;99.90;;;;;;5075098;28;20326;-73
2022/06/28 07:49:13;;;;;;;9.97;6.33;;;18.30;99.90;;;;;;5084016;28;20185;-73
2022/06/28 07:55:01;;;;;;;11.07;6.40;;;18.40;99.90;;;;;;5068100;28;20205;-74
2022/06/28 07:57:46;;;;;;;9.68;6.13;;;18.50;99.90;;;;;;5065165;28;20191;-74
2022/06/28 08:00:30;;;;;;;8.10;6.20;;;18.60;99.90;;;;;;5065405;28;20197;-73
2022/06/28 08:03:14;;;;;;;6.88;5.20;;;18.70;99.90;;;;;;5059864;28;20588;-73
2022/06/28 08:05:58;;;;;;;10.63;6.28;;;18.80;99.90;;;;;;5064036;28;20191;-73
2022/06/28 08:08:42;;;;;;;9.38;5.60;;;18.90;99.90;;;;;;5066293;28;20244;-73
2022/06/28 08:11:26;;;;;;;8.30;5.60;;;19.00;99.90;;;;;;5072898;28;20716;-73
2022/06/28 08:14:12;;;;;;;8.43;6.65;;;19.10;99.90;;;;;;5065147;28;20348;-73
2022/06/28 08:16:56;;;;;;;8.02;6.40;;;19.10;99.90;;;;;;5066647;28;20194;-73
2022/06/28 08:19:42;;;;;;;7.07;5.95;;;19.10;99.90;;;;;;5065758;28;20221;-72
2022/06/28 08:22:27;;;;;;;6.57;5.05;;;19.10;99.90;;;;;;5065628;28;20367;-72
2022/06/28 08:25:11;;;;;;;9.00;6.03;;;19.10;99.90;;;;;;5066764;28;20182;-72
2022/06/28 08:27:55;;;;;;;8.52;6.18;;;19.10;99.90;;;;;;5067825;28;20186;-72
2022/06/28 08:30:40;;;;;;;6.60;5.22;;;19.20;99.90;;;;;;5063085;28;20232;-72
2022/06/28 08:33:25;;;;;;;7.78;4.43;;;19.20;99.90;;;;;;5064997;28;20267;-72
2022/06/28 08:36:09;;;;;;;8.18;4.68;;;19.20;99.90;;;;;;5063741;28;20263;-72
2022/06/28 08:38:53;;;;;;;6.15;4.70;;;19.30;99.90;;;;;;5060086;28;20189;-72
2022/06/28 08:41:40;;;;;;;9.15;4.90;;;19.40;99.90;;;;;;5064263;28;20217;-72
2022/06/28 08:44:24;;;;;;;6.95;3.75;;;19.40;99.90;;;;;;5065961;28;20263;-72
2022/06/28 08:47:14;;;;;;;6.05;4.07;;;19.60;99.90;;;;;;5063759;28;20193;-72
2022/06/28 08:50:05;;;;;;;9.25;4.90;;;19.60;99.90;;;;;;5066444;28;20256;-72
2022/06/28 08:52:51;;;;;;;7.50;4.90;;;19.70;99.90;;;;;;5063661;28;20280;-72
2022/06/28 08:55:36;;;;;;;11.70;4.70;;;19.70;99.90;;;;;;5054301;28;20213;-72
2022/06/28 08:58:22;;;;;;;9.05;5.60;;;19.70;99.90;;;;;;5070817;28;20228;-72
2022/06/28 09:01:06;;;;;;;9.07;5.03;;;19.70;99.90;;;;;;5064361;28;20225;-72
2022/06/28 09:03:52;;;;;;;6.18;4.88;;;19.80;99.90;;;;;;5061039;28;20210;-72
2022/06/28 09:06:37;;;;;;;7.75;5.10;;;19.80;99.90;;;;;;5064748;28;20209;-72
2022/06/28 09:09:21;;;;;;;6.90;3.83;;;19.90;99.90;;;;;;5062257;28;20194;-72
2022/06/28 09:12:06;;;;;;;7.13;3.70;;;19.90;99.90;;;;;;5067695;28;20193;-72
2022/06/28 09:14:50;;;;;;;3.80;2.67;;;19.90;99.90;;;;;;5066705;28;20189;-72
2022/06/28 09:17:35;;;;;;;3.70;2.67;;;19.80;99.90;;;;;;5064131;28;20214;-72
2022/06/28 09:20:20;;;;;;;4.90;2.47;;;19.80;99.90;;;;;;5063171;28;20242;-73
2022/06/28 09:23:19;;;;;;;3.58;2.70;;;19.90;99.90;;;;;;5065164;28;20221;-72
2022/06/28 09:26:18;;;;;;;4.15;2.50;;;20.00;99.90;;;;;;5058308;28;20186;-72
2022/06/28 09:29:12;;;;;;;5.80;2.88;;;20.00;99.90;;;;;;5064287;28;20186;-73
2022/06/28 09:31:56;;;;;;;5.63;3.10;;;20.10;99.90;;;;;;5064717;28;20259;-72
2022/06/28 09:34:52;;;;;;;4.20;2.85;;;20.20;99.90;;;;;;5059052;28;20194;-72
2022/06/28 09:37:56;;;;;;;5.70;2.85;;;20.20;99.90;;;;;;5055244;28;20197;-72
2022/06/28 09:40:40;;;;;;;6.60;2.00;;;20.40;99.90;;;;;;5057391;28;20260;-72
2022/06/28 09:43:33;;;;;;;3.40;2.00;;;20.50;99.90;;;;;;5054929;28;20217;-72
2022/06/28 09:46:19;;;;;;;2.58;1.77;;;20.50;99.90;;;;;;5059276;28;20213;-72
2022/06/28 09:49:08;;;;;;;5.55;1.60;;;20.50;99.90;;;;;;5061875;28;20187;-73
2022/06/28 09:51:53;;;;;;;2.10;1.50;;;20.60;99.90;;;;;;5082468;28;20187;-72
2022/06/28 09:54:40;;;;;;;2.80;1.65;;;20.70;99.90;;;;;;5058955;28;20218;-73
2022/06/28 09:57:25;;;;;;;2.00;1.42;;;20.70;99.90;;;;;;5089886;28;20248;-73
2022/06/28 10:00:11;;;;;;;3.55;1.10;;;20.80;99.90;;;;;;5056295;28;20189;-72
2022/06/28 10:02:56;;;;;;;1.75;1.50;;;20.80;99.90;;;;;;5055743;28;20234;-73
2022/06/28 10:05:41;;;;;;;3.83;1.45;;;20.80;99.90;;;;;;5055788;28;20816;-73
2022/06/28 10:08:25;;;;;;;3.58;1.95;;;20.80;99.90;;;;;;5055709;28;20615;-73
2022/06/28 10:11:10;;;;;;;2.60;1.38;;;20.90;99.90;;;;;;5059466;28;20244;-74
2022/06/28 10:17:16;;;;;;;2.80;1.17;;;20.90;99.90;;;;;;5060808;28;20232;-73
2022/06/28 10:20:06;;;;;;;5.38;1.30;;;20.90;99.90;;;;;;5058009;28;20209;-73
2022/06/28 10:22:52;;;;;;;1.42;1.15;;;20.90;99.90;;;;;;5061940;28;20225;-74
2022/06/28 10:25:38;;;;;;;2.42;1.00;;;20.90;99.90;;;;;;5057269;28;20259;-73
2022/06/28 10:28:37;;;;;;;5.45;1.20;;;21.00;99.90;;;;;;5055956;28;20704;-74
2022/06/28 10:31:21;;;;;;;3.00;0.95;;;21.20;99.90;;;;;;5058496;28;20179;-74
2022/06/28 10:34:08;;;;;;;2.67;0.80;;;21.40;99.90;;;;;;5061106;28;20229;-73
2022/06/28 10:36:54;;;;;;;3.40;1.10;;;21.50;99.90;;;;;;5058558;28;20309;-74
2022/06/28 10:39:39;;;;;;;1.60;0.90;;;21.60;99.90;;;;;;5062040;28;20550;-74
2022/06/28 10:42:23;;;;;;;1.40;1.20;;;21.70;99.90;;;;;;5062866;28;20218;-73
2022/06/28 10:45:07;;;;;;;0.88;0.80;;;21.80;99.90;;;;;;5062628;28;20234;-74
2022/06/28 10:48:10;;;;;;;3.00;0.90;;;21.80;99.90;;;;;;5061262;28;20185;-74
2022/06/28 10:51:02;;;;;;;3.00;0.90;;;21.80;99.90;;;;;;5061667;28;20189;-74
2022/06/28 10:54:04;;;;;;;2.58;0.90;;;21.80;99.90;;;;;;5060275;28;20648;-73
2022/06/28 10:56:48;;;;;;;1.27;0.93;;;22.00;99.90;;;;;;5083402;28;20233;-74
2022/06/28 10:59:38;;;;;;;3.58;0.80;;;22.10;99.90;;;;;;5060156;28;20355;-74
2022/06/28 11:02:23;;;;;;;1.95;0.65;;;22.10;99.90;;;;;;5054147;28;20249;-74
2022/06/28 11:05:09;;;;;;;2.88;0.98;;;22.20;99.90;;;;;;5084079;28;20199;-74
2022/06/28 11:07:59;;;;;;;1.77;0.50;;;22.30;99.90;;;;;;5085835;27;20236;-74
2022/06/28 11:11:03;;;;;;;3.60;0.88;;;22.20;99.90;;;;;;5057583;28;20183;-74
2022/06/28 11:13:47;;;;;;;2.00;0.88;;;22.20;99.90;;;;;;5062480;28;20688;-74
2022/06/28 11:16:45;;;;;;;0.95;0.57;;;22.20;99.90;;;;;;5059407;28;20186;-74
2022/06/28 11:19:30;;;;;;;1.70;0.55;;;22.30;99.90;;;;;;5062505;28;20252;-74
2022/06/28 11:22:14;;;;;;;1.30;0.60;;;22.30;99.90;;;;;;5060122;28;20217;-75
2022/06/28 11:25:01;;;;;;;0.60;0.47;;;22.20;99.90;;;;;;5057914;28;20233;-74
2022/06/28 11:27:48;;;;;;;2.75;0.75;;;22.20;99.90;;;;;;5059158;28;20573;-75
2022/06/28 11:30:32;;;;;;;3.08;0.93;;;22.40;99.90;;;;;;5056891;28;20210;-75
2022/06/28 11:33:16;;;;;;;1.08;0.50;;;22.30;99.90;;;;;;5057113;28;20238;-76
2022/06/28 11:36:01;;;;;;;4.22;0.60;;;22.30;99.90;;;;;;5063328;28;20248;-75
2022/06/28 11:38:45;;;;;;;1.50;0.88;;;22.20;99.90;;;;;;5059869;28;20182;-75
2022/06/28 11:41:31;;;;;;;1.17;0.60;;;22.20;99.90;;;;;;5058298;28;20256;-75
2022/06/28 11:44:16;;;;;;;2.55;0.90;;;22.20;99.90;;;;;;5062212;28;20221;-75
2022/06/28 11:47:02;;;;;;;1.30;0.70;;;22.10;99.90;;;;;;5057070;28;20244;-75
2022/06/28 11:50:08;;;;;;;3.25;0.70;;;22.10;99.90;;;;;;5055958;28;20265;-75
2022/06/28 11:52:55;;;;;;;1.63;0.50;;;22.20;99.90;;;;;;5058363;28;20237;-75
2022/06/28 11:55:45;;;;;;;1.63;0.60;;;22.30;99.90;;;;;;5056591;28;20890;-75
2022/06/28 11:58:32;;;;;;;1.85;0.55;;;22.40;99.90;;;;;;5060212;28;20277;-75
2022/06/28 12:01:19;;;;;;;2.60;0.80;;;22.40;99.90;;;;;;5060036;28;20296;-75
2022/06/28 12:04:06;;;;;;;2.65;0.70;;;22.40;99.90;;;;;;5059792;28;20295;-75
2022/06/28 12:06:50;;;;;;;1.40;0.60;;;22.40;99.90;;;;;;5058655;28;20213;-76
2022/06/28 12:09:44;;;;;;;1.67;0.63;;;22.40;99.90;;;;;;5059700;28;20190;-75
2022/06/28 12:12:28;;;;;;;2.83;0.75;;;22.40;99.90;;;;;;5062550;28;20228;-75
2022/06/28 12:15:12;;;;;;;1.38;0.80;;;22.40;99.90;;;;;;5059162;28;20189;-76
2022/06/28 12:18:03;;;;;;;2.13;0.50;;;22.40;99.90;;;;;;5057366;28;20186;-78
2022/06/28 12:20:57;;;;;;;1.88;0.50;;;22.50;99.90;;;;;;5058821;28;20614;-76
2022/06/28 12:23:56;;;;;;;4.20;0.90;;;22.50;99.90;;;;;;5060151;28;20217;-76
2022/06/28 12:26:45;;;;;;;1.70;0.60;;;22.60;99.90;;;;;;5074277;28;20197;-76
2022/06/28 12:29:29;;;;;;;3.55;0.60;;;22.70;99.90;;;;;;5055668;28;20189;-76
2022/06/28 12:32:13;;;;;;;2.45;0.55;;;22.80;99.90;;;;;;5060206;28;20204;-77
2022/06/28 12:35:06;;;;;;;1.95;0.60;;;22.80;99.90;;;;;;5057473;28;20291;-77
2022/06/28 12:37:52;;;;;;;1.63;0.60;;;22.80;99.90;;;;;;5060346;28;20190;-77
2022/06/28 12:40:36;;;;;;;1.50;0.60;;;22.70;99.90;;;;;;5055387;28;20275;-76
2022/06/28 12:43:20;;;;;;;3.10;0.70;;;22.60;99.90;;;;;;5057452;28;20217;-76
2022/06/28 12:46:04;;;;;;;1.77;0.63;;;22.70;99.90;;;;;;5063460;28;20275;-76
2022/06/28 12:48:49;;;;;;;1.15;0.47;;;22.60;99.90;;;;;;5058181;28;20198;-77
2022/06/28 12:51:33;;;;;;;1.88;0.82;;;22.60;99.90;;;;;;5056215;28;20285;-77
2022/06/28 12:54:17;;;;;;;1.95;0.50;;;22.90;99.90;;;;;;5054134;28;20230;-79
2022/06/28 12:57:02;;;;;;;1.58;0.60;;;23.00;99.90;;;;;;5063347;28;20269;-77
2022/06/28 12:59:46;;;;;;;2.17;0.50;;;23.00;99.90;;;;;;5058966;28;20182;-77
2022/06/28 13:02:31;;;;;;;2.88;0.55;;;23.10;99.90;;;;;;5059009;28;20259;-78
2022/06/28 13:05:14;;;;;;;2.55;0.57;;;23.10;99.90;;;;;;5060399;28;20185;-78
2022/06/28 13:08:01;;;;;;;2.83;0.75;;;23.20;99.90;;;;;;5057361;28;20273;-76
2022/06/28 13:10:46;;;;;;;1.88;0.50;;;23.20;99.90;;;;;;5059170;28;20185;-78
2022/06/28 13:13:31;;;;;;;2.53;0.60;;;23.10;99.90;;;;;;5058007;28;20209;-77
2022/06/28 13:16:16;;;;;;;1.77;0.60;;;23.10;99.90;;;;;;5058700;28;20246;-77
2022/06/28 13:19:00;;;;;;;3.78;0.50;;;23.10;99.90;;;;;;5058785;28;20243;-78
2022/06/28 13:21:47;;;;;;;2.35;0.60;;;23.10;99.90;;;;;;5059401;28;20367;-77
2022/06/28 13:24:32;;;;;;;1.08;0.57;;;23.10;99.90;;;;;;5059456;28;20205;-77
2022/06/28 13:27:16;;;;;;;2.63;0.60;;;23.20;99.90;;;;;;5059302;28;20246;-78
2022/06/28 13:30:05;;;;;;;1.77;0.50;;;23.20;99.90;;;;;;5058111;28;20189;-78
2022/06/28 13:32:49;;;;;;;2.95;0.80;;;23.20;99.90;;;;;;5053716;28;20217;-77
2022/06/28 13:35:34;;;;;;;1.23;0.70;;;23.10;99.90;;;;;;5059853;28;20204;-77
2022/06/28 13:38:18;;;;;;;1.85;0.70;;;23.10;99.90;;;;;;5056392;28;20690;-76
2022/06/28 13:41:02;;;;;;;2.60;0.65;;;23.20;99.90;;;;;;5060239;28;20229;-76
2022/06/28 13:43:46;;;;;;;2.58;0.80;;;23.20;99.90;;;;;;5043179;28;20218;-76
2022/06/28 13:46:30;;;;;;;4.63;0.68;;;23.20;99.90;;;;;;5062268;28;20202;-76
2022/06/28 13:49:15;;;;;;;2.80;0.82;;;23.30;99.90;;;;;;5061995;28;20201;-76
2022/06/28 13:51:59;;;;;;;1.35;0.60;;;23.40;99.90;;;;;;5057766;28;20719;-76
2022/06/28 13:54:44;;;;;;;1.58;0.63;;;23.40;99.90;;;;;;5059823;28;20270;-76
2022/06/28 13:57:27;;;;;;;0.85;0.50;;;23.30;99.90;;;;;;5061726;28;20193;-76
2022/06/28 14:00:12;;;;;;;1.45;0.50;;;23.20;99.90;;;;;;5056245;28;20247;-76
2022/06/28 14:02:56;;;;;;;0.60;0.57;;;23.30;99.90;;;;;;5057750;28;20352;-76
2022/06/28 14:05:43;;;;;;;3.47;0.60;;;23.40;99.90;;;;;;5059765;28;20624;-78
2022/06/28 14:08:28;;;;;;;1.65;0.70;;;23.50;99.90;;;;;;5061038;28;20233;-77
2022/06/28 14:11:12;;;;;;;2.85;0.70;;;23.60;99.90;;;;;;5063254;28;20224;-77
2022/06/28 14:13:56;;;;;;;1.23;0.65;;;23.50;99.90;;;;;;5061630;28;20214;-77
2022/06/28 14:16:40;;;;;;;2.65;0.80;;;23.60;99.90;;;;;;5057316;28;20190;-78
2022/06/28 14:19:24;;;;;;;3.22;0.80;;;23.60;99.90;;;;;;5059429;28;20174;-77
2022/06/28 14:22:08;;;;;;;0.90;0.75;;;23.70;99.90;;;;;;5060369;28;20213;-78